Flight Track Log - Related Links

Times and Time Zones

All times are in EDT time to prevent confusion due to time zone crossing. See the N789EX flight status page for this flight to view local times or setup timezone preferences in your user account.

Time Position Orientation Groundspeed Altitude Reporting Facility
EDT Latitude Longitude Course Direction KTS MPH feet Rate Location/Type
Tue 12:26:25 PM 47.5685 -122.3390 324° Northwest 213 245 2,100  Level FlightAware ADS-B
Tue 12:26:38 PM 47.5789 -122.3500 324° Northwest 218 251 2,800 2,143 Climbing FlightAware ADS-B
Tue 12:26:53 PM 47.5920 -122.3640 325° Northwest 242 278 3,100 1,500 Climbing FlightAware ADS-B
Tue 12:26:58 PM 47.5968 -122.3690 320° Northwest 248 285 3,300 2,667 Climbing FlightAware ADS-B
Tue 12:27:02 PM 47.5995 -122.3730 314° West 251 289 3,500 2,571 Climbing FlightAware ADS-B
Tue 12:27:05 PM 47.6019 -122.3780 310° West 253 291 3,600 2,571 Climbing FlightAware ADS-B
Tue 12:27:09 PM 47.6052 -122.3840 308° West 256 295 3,800 3,000 Climbing FlightAware ADS-B
Tue 12:27:25 PM 47.6163 -122.4060 306° West 264 304 4,600 3,120 Climbing FlightAware ADS-B
Tue 12:27:34 PM 47.6226 -122.4190 305° West 265 305 5,100 3,500 Climbing FlightAware ADS-B
Tue 12:27:37 PM 47.6250 -122.4250 303° West 265 305 5,300 4,286 Climbing FlightAware ADS-B
Tue 12:27:41 PM 47.6275 -122.4310 298° West 267 307 5,600 3,333 Climbing FlightAware ADS-B
Tue 12:27:46 PM 47.6296 -122.4390 289° West 268 308 5,800 3,000 Climbing FlightAware ADS-B
Tue 12:27:49 PM 47.6305 -122.4450 283° West 270 311 6,000 3,000 Climbing FlightAware ADS-B
Tue 12:27:52 PM 47.6310 -122.4500 279° West 270 311 6,100 3,000 Climbing FlightAware ADS-B
Tue 12:27:57 PM 47.6309 -122.4590 266° West 274 315 6,400 3,333 Climbing FlightAware ADS-B
Tue 12:28:01 PM 47.6299 -122.4670 258° West 275 316 6,600 2,571 Climbing FlightAware ADS-B
Tue 12:28:04 PM 47.6287 -122.4720 252° West 276 318 6,700 2,571 Climbing FlightAware ADS-B
Tue 12:28:08 PM 47.6269 -122.4780 243° Southwest 276 318 6,900 3,429 Climbing FlightAware ADS-B
Tue 12:28:11 PM 47.6247 -122.4830 237° Southwest 277 319 7,100 2,727 Climbing FlightAware ADS-B
Tue 12:28:19 PM 47.6171 -122.4950 219° Southwest 278 320 7,400 2,000 Climbing FlightAware ADS-B
Tue 12:28:23 PM 47.6137 -122.4990 212° Southwest 276 318 7,500 2,250 Climbing FlightAware ADS-B
Tue 12:28:27 PM 47.6087 -122.5020 204° Southwest 275 316 7,700 2,571 Climbing FlightAware ADS-B
Tue 12:28:30 PM 47.6047 -122.5040 197° South 275 316 7,800 1,714 Climbing FlightAware ADS-B
Tue 12:28:34 PM 47.5995 -122.5050 188° South 275 316 7,900 2,250 Climbing FlightAware ADS-B
Tue 12:28:38 PM 47.5949 -122.5050 179° South 274 315 8,100 3,000 Climbing FlightAware ADS-B
Tue 12:28:42 PM 47.5902 -122.5040 170° South 273 314 8,300 3,333 Climbing FlightAware ADS-B
Tue 12:28:47 PM 47.5841 -122.5010 162° South 272 313 8,600 3,818 Climbing FlightAware ADS-B
Tue 12:28:53 PM 47.5765 -122.4970 155° Southeast 273 314 9,000 3,231 Climbing FlightAware ADS-B
Tue 12:29:00 PM 47.5695 -122.4910 151° Southeast 274 315 9,300 3,000 Climbing FlightAware ADS-B
Tue 12:29:03 PM 47.5654 -122.4880 146° Southeast 275 316 9,500 3,429 Climbing FlightAware ADS-B
Tue 12:29:07 PM 47.5619 -122.4840 142° Southeast 275 316 9,700 3,000 Climbing FlightAware ADS-B
Tue 12:29:09 PM 47.5597 -122.4807 138° Southeast 275 316 9,800 2,000 Climbing FlightAware ADS-B (CYVR)
Tue 12:29:10 PM 47.5586 -122.4790 136° Southeast 274 315 9,800 2,000 Level FlightAware ADS-B
Tue 12:29:15 PM 47.5552 -122.4730 128° Southeast 275 316 10,000 3,000 Climbing FlightAware ADS-B
Tue 12:29:18 PM 47.5527 -122.4670 122° Southeast 276 318 10,200 3,600 Climbing FlightAware ADS-B
Tue 12:29:20 PM 47.5524 -122.4666 119° Southeast 277 319 10,300 2,400 Climbing FlightAware ADS-B (CYVR)
Tue 12:29:23 PM 47.5501 -122.4600 114° Southeast 279 321 10,400 2,400 Climbing FlightAware ADS-B
Tue 12:29:25 PM 47.5506 -122.4612 109° East 283 326 10,500 1,059 Climbing FlightAware ADS-B (CYVR)
Tue 12:29:40 PM 47.5434 -122.4270 105° East 302 348 10,700 857 Climbing FlightAware ADS-B
Tue 12:30:00 PM 47.5367 -122.3869 103° East 335 386 11,000 800 Climbing FlightAware ADS-B (CYVR)
Tue 12:30:10 PM 47.5326 -122.3600 103° East 346 398 11,100 1,650 Climbing FlightAware ADS-B
Tue 12:30:40 PM 47.5220 -122.2890 103° East 370 426 12,100 1,935 Climbing FlightAware ADS-B (CYVR)
Tue 12:30:41 PM 47.5216 -122.2870 103° East 370 426 12,100 3,000 Level FlightAware ADS-B
Tue 12:31:10 PM 47.5105 -122.2145 103° East 375 432 13,600 3,200 Climbing FlightAware ADS-B (CYVR)
Tue 12:31:11 PM 47.5098 -122.2110 103° East 375 432 13,700 2,600 Climbing FlightAware ADS-B
Tue 12:31:40 PM 47.4986 -122.1399 103° East 383 441 14,900 2,516 Climbing FlightAware ADS-B (CYVR)
Tue 12:31:42 PM 47.4977 -122.1340 103° East 383 441 15,000 2,625 Climbing FlightAware ADS-B
Tue 12:32:12 PM 47.4851 -122.0570 104° East 391 450 16,300 2,571 Climbing FlightAware ADS-B
Tue 12:32:17 PM 47.4834 -122.0462 104° East 393 452 16,500 1,400 Climbing FlightAware ADS-B (CYVR)
Tue 12:32:42 PM 47.4724 -121.9800 104° East 390 449 17,000 1,125 Climbing FlightAware ADS-B
Tue 12:32:49 PM 47.4692 -121.9601 104° East 388 447 17,100 200 Climbing FlightAware ADS-B (CYVR)
Tue 12:33:12 PM 47.4594 -121.9010 104° East 387 445 17,100  Level FlightAware ADS-B
Tue 12:33:28 PM 47.4534 -121.8648 104° East 385 443 17,100  Level FlightAware ADS-B (CYVR)
Tue 12:33:43 PM 47.4467 -121.8240 104° East 384 442 17,100  Level FlightAware ADS-B
Tue 12:34:06 PM 47.4369 -121.7650 103° East 384 442 17,100  Level FlightAware ADS-B
Tue 12:34:18 PM 47.4327 -121.7340 99° East 383 441 17,100  Level FlightAware ADS-B
Tue 12:34:32 PM 47.4298 -121.6980 95° East 384 442 17,100  Level FlightAware ADS-B
Tue 12:34:43 PM 47.4288 -121.6680 91° East 385 443 17,100  Level FlightAware ADS-B
Tue 12:35:11 PM 47.4279 -121.5950 91° East 387 445 17,100  Level FlightAware ADS-B
Tue 12:35:41 PM 47.4267 -121.5150 91° East 388 447 17,100  Level FlightAware ADS-B
Tue 12:36:11 PM 47.4254 -121.4350 91° East 387 445 17,100  Level FlightAware ADS-B
Tue 12:36:41 PM 47.4241 -121.3560 91° East 387 445 17,100  Level FlightAware ADS-B
Tue 12:37:11 PM 47.4228 -121.2770 91° East 387 445 17,100  Level FlightAware ADS-B
Tue 12:37:41 PM 47.4214 -121.1980 91° East 388 447 17,100  Level FlightAware ADS-B
Tue 12:38:07 PM 47.4202 -121.1300 92° East 388 447 17,100  Level FlightAware ADS-B (CYVR)
Tue 12:38:12 PM 47.4200 -121.1180 91° East 388 447 17,100  Level FlightAware ADS-B
Tue 12:38:42 PM 47.4185 -121.0380 92° East 388 447 17,100  Level FlightAware ADS-B
Tue 12:39:12 PM 47.4169 -120.9580 92° East 388 447 17,100  Level FlightAware ADS-B
Tue 12:39:42 PM 47.4153 -120.8780 92° East 387 445 17,100  Level FlightAware ADS-B
Tue 12:40:12 PM 47.4136 -120.7990 92° East 387 445 17,100  Level FlightAware ADS-B
Tue 12:40:42 PM 47.4119 -120.7200 92° East 387 445 17,100  Level FlightAware ADS-B
Tue 12:41:26 PM 47.4093 -120.6050 92° East 389 448 17,100  Level FlightAware ADS-B
Tue 12:41:47 PM 47.4116 -120.5500 77° East 376 433 17,100  Level FlightAware ADS-B
Tue 12:41:58 PM 47.4195 -120.5240 59° Northeast 364 419 17,100  Level FlightAware ADS-B
Tue 12:42:05 PM 47.4264 -120.5110 50° Northeast 355 409 17,100 -235 Level FlightAware ADS-B
Tue 12:42:49 PM 47.4754 -120.4410 43° Northeast 332 382 16,900 -722 Descending FlightAware ADS-B
Tue 12:43:53 PM 47.5344 -120.3544 43° Northeast 308 354 15,800 -1,008 Descending Seattle Center
Tue 12:44:54 PM 47.5847 -120.2636 51° Northeast 290 334 14,800 -885 Descending Seattle Center
Tue 12:45:55 PM 47.6253 -120.1817 54° Northeast 255 293 14,000 -885 Descending Seattle Center
Tue 12:46:56 PM 47.6611 -120.1081 54° Northeast 204 235 13,000 -492 Descending Seattle Center
Tue 12:47:57 PM 47.6942 -120.0433 53° Northeast 198 228 13,000  Level Seattle Center
Tue 12:48:58 PM 47.7275 -119.9786 53° Northeast 197 227 13,000 -49 Level Seattle Center
Tue 12:49:59 PM 47.7100 -119.9644 151° Southeast 210 242 12,900  Descending Seattle Center
Tue 12:50:59 PM 47.6842 -120.0328 241° Southwest 195 224 13,000 -793 Climbing Seattle Center
Tue 12:52:00 PM 47.6942 -120.0617 297° West 209 241 11,300 -295 Descending Seattle Center
Tue 12:53:01 PM 47.6911 -119.9819 93° East 190 219 12,400 836 Climbing Seattle Center
Tue 12:54:02 PM 47.7214 -119.9197 54° Northeast 188 216 13,000 246 Climbing Seattle Center
Tue 12:55:03 PM 47.7606 -119.8636 44° Northeast 212 244 12,900 -148 Descending Seattle Center
Tue 12:56:04 PM 47.7428 -119.9492 253° West 224 258 12,700  Descending Seattle Center
Tue 12:57:05 PM 47.7236 -120.0250 249° West 203 234 12,900 -98 Climbing Seattle Center
Tue 12:58:06 PM 47.7211 -119.9783 95° East 226 260 12,500 -98 Descending Seattle Center
Tue 12:59:07 PM 47.7567 -119.9142 50° Northeast 202 232 12,700 248 Climbing Seattle Center
Tue 01:00:07 PM 47.8011 -119.9361 342° North 180 207 13,000 198 Climbing Seattle Center
Tue 01:01:08 PM 47.8514 -119.9692 336° Northwest 195 224 13,100 246 Climbing Seattle Center
Tue 01:02:09 PM 47.8847 -119.9514 20° North 204 235 13,500  Climbing Seattle Center
Tue 01:03:10 PM 47.8644 -119.8711 111° Southeast 200 230 13,100 -639 Descending Seattle Center
Tue 01:04:11 PM 47.8586 -119.7956 97° East 227 261 12,200 -246 Descending Seattle Center
Tue 01:05:12 PM 47.8522 -119.8628 262° West 187 215 12,600 393 Climbing Seattle Center
Tue 01:06:13 PM 47.8533 -119.9311 271° West 200 230 13,000 197 Climbing Seattle Center
Tue 01:07:14 PM 47.8886 -119.8733 48° Northeast 203 234 13,000 49 Level Seattle Center
Tue 01:08:15 PM 47.8658 -119.8661 168° South 215 247 13,100 393 Climbing Seattle Center
Tue 01:09:16 PM 47.8447 -119.9417 247° West 187 215 13,800 295 Climbing Seattle Center
Tue 01:10:17 PM 47.8083 -120.0078 231° Southwest 203 234 13,700 -148 Descending Seattle Center
Tue 01:11:18 PM 47.7733 -120.0728 231° Southwest 203 234 13,500 -344 Descending Seattle Center
Tue 01:12:19 PM 47.7303 -120.0969 201° Southwest 224 258 13,000 -393 Descending Seattle Center
Tue 01:13:20 PM 47.7753 -120.0481 36° Northeast 203 234 12,700 -246 Descending Seattle Center
Tue 01:14:21 PM 47.8128 -119.9817 50° Northeast 209 241 12,500 -197 Descending Seattle Center
Tue 01:15:22 PM 47.8361 -119.9036 66° East 208 239 12,300 -246 Descending Seattle Center
Tue 01:16:23 PM 47.8586 -119.8306 65° Northeast 197 227 12,000 -689 Descending Seattle Center
Tue 01:17:24 PM 47.8492 -119.8047 119° Southeast 235 270 10,900 -49 Descending Seattle Center
Tue 01:18:25 PM 47.8408 -119.8625 258° West 190 219 11,900 836 Climbing Seattle Center
Tue 01:19:26 PM 47.7897 -119.8958 204° Southwest 184 212 12,600 393 Climbing Seattle Center
Tue 01:20:27 PM 47.7814 -119.8744 120° Southeast 187 215 12,700 -49 Climbing Seattle Center
Tue 01:21:28 PM 47.8208 -119.8383 32° Northeast 182 209 12,500 -344 Descending Seattle Center
Tue 01:22:29 PM 47.8283 -119.7650 81° East 200 230 12,000  Descending Seattle Center
Tue 01:23:30 PM 47.8139 -119.8342 253° West 194 223 12,500 246 Climbing Seattle Center
Tue 01:24:31 PM 47.8083 -119.9178 264° West 192 221 12,500 393 Level Seattle Center
Tue 01:25:32 PM 47.8025 -119.9964 264° West 192 221 13,300 738 Climbing Seattle Center
Tue 01:26:33 PM 47.7950 -120.0742 262° West 192 221 14,000 347 Climbing Seattle Center
Tue 01:27:33 PM 47.7525 -120.0819 187° South 207 238 14,000  Level Seattle Center
Tue 01:28:34 PM 47.7256 -120.0061 118° Southeast 202 232 14,000 -246 Level Seattle Center
Tue 01:29:35 PM 47.7614 -119.9889 18° North 213 245 13,500 -49 Descending Seattle Center
Tue 01:30:36 PM 47.8114 -120.0144 341° North 188 216 13,900 295 Climbing Seattle Center
Tue 01:31:37 PM 47.8439 -119.9686 43° Northeast 210 242 14,100 49 Climbing Seattle Center
Tue 01:32:38 PM 47.8600 -119.8933 72° East 193 222 14,000  Descending Seattle Center
Tue 01:33:39 PM 47.8775 -119.8103 73° East 193 222 14,100 49 Climbing Seattle Center
Tue 01:34:40 PM 47.8933 -119.7322 73° East 195 224 14,100 -98 Level Seattle Center
Tue 01:35:42 PM 47.8578 -119.6922 143° Southeast 226 260 13,900 -49 Descending Seattle Center
Tue 01:36:43 PM 47.8014 -119.6872 177° South 207 238 14,000 49 Climbing Seattle Center
Tue 01:37:44 PM 47.7444 -119.6872 180° South 206 237 14,000 49 Level Seattle Center
Tue 01:38:45 PM 47.6842 -119.6928 184° South 205 236 14,100 -148 Climbing Seattle Center
Tue 01:39:46 PM 47.6394 -119.7258 206° Southwest 219 252 13,700 -98 Descending Seattle Center
Tue 01:40:47 PM 47.6814 -119.7728 323° Northwest 188 216 13,900 492 Climbing Seattle Center
Tue 01:41:48 PM 47.7244 -119.8211 323° Northwest 191 220 14,700 689 Climbing Seattle Center
Tue 01:42:49 PM 47.7656 -119.8683 322° Northwest 189 217 15,300 148 Climbing Seattle Center
Tue 01:43:50 PM 47.8161 -119.9247 323° Northwest 207 238 15,000 -148 Descending Seattle Center
Tue 01:44:51 PM 47.8658 -119.9356 352° North 224 258 15,000  Level Seattle Center
Tue 01:45:52 PM 47.8681 -119.8436 88° East 223 257 15,000  Level Seattle Center
Tue 01:46:53 PM 47.8700 -119.7528 88° East 221 254 15,000  Level Seattle Center
Tue 01:47:54 PM 47.8725 -119.6586 88° East 222 255 15,000  Level Seattle Center
Tue 01:48:55 PM 47.8739 -119.5608 89° East 222 255 15,000  Level Seattle Center
Tue 01:49:56 PM 47.8756 -119.4675 88° East 223 257 15,000  Level Seattle Center
Tue 01:50:57 PM 47.8775 -119.3758 88° East 223 257 15,000  Level Seattle Center
Tue 01:51:58 PM 47.8783 -119.2831 89° East 225 259 15,000 -49 Level Seattle Center
Tue 01:52:59 PM 47.8783 -119.1825 90° East 225 259 14,900 -49 Descending Seattle Center
Tue 01:54:00 PM 47.8794 -119.0906 89° East 224 258 14,900  Level Seattle Center
Tue 01:55:01 PM 47.8808 -118.9978 89° East 225 259 14,900  Level Seattle Center
Tue 01:56:02 PM 47.8831 -118.9047 88° East 226 260 14,900  Level Seattle Center
Tue 01:57:04 PM 47.8325 -118.8367 138° Southeast 236 272 14,900 -49 Level Seattle Center
Tue 01:58:05 PM 47.7931 -118.7628 128° Southeast 230 265 14,800 -49 Descending Seattle Center
Tue 01:59:06 PM 47.7422 -118.7469 168° South 218 251 14,800 49 Level Seattle Center
Tue 02:00:07 PM 47.7061 -118.8078 229° Southwest 191 220 14,900  Climbing Seattle Center
Tue 02:01:08 PM 47.6722 -118.8664 229° Southwest 189 217 14,800  Descending Seattle Center
Tue 02:02:09 PM 47.6389 -118.9275 231° Southwest 176 203 14,900 49 Climbing Seattle Center
Tue 02:03:10 PM 47.6133 -118.9814 235° Southwest 164 189 14,900  Level Seattle Center
Tue 02:04:11 PM 47.6075 -119.0492 263° West 164 189 14,900  Level Seattle Center
Tue 02:05:12 PM 47.6292 -119.1100 298° West 175 201 14,900 -98 Level Seattle Center
Tue 02:06:13 PM 47.6564 -119.1692 304° West 164 189 14,700 -98 Descending Seattle Center
Tue 02:07:14 PM 47.6869 -119.2125 316° Northwest 156 180 14,700 146 Level Seattle Center
Tue 02:08:16 PM 47.7153 -119.2722 305° West 176 203 15,000 146 Climbing Seattle Center
Tue 02:09:17 PM 47.7511 -119.3442 307° West 215 247 15,000  Level Seattle Center
Tue 02:10:18 PM 47.7939 -119.4361 305° West 248 285 15,000  Level Seattle Center
Tue 02:11:19 PM 47.8272 -119.5042 306° West 205 236 15,000 -246 Level Seattle Center
Tue 02:12:20 PM 47.8647 -119.5422 326° Northwest 195 224 14,500 -344 Descending Seattle Center
Tue 02:13:21 PM 47.8447 -119.4661 111° Southeast 196 226 14,300 -829 Descending Seattle Center
Tue 02:14:23 PM 47.8225 -119.4644 177° South 245 282 12,800 -1,073 Descending Seattle Center
Tue 02:15:24 PM 47.8581 -119.5175 315° West 185 213 12,100 -492 Descending Seattle Center
Tue 02:16:25 PM 47.8275 -119.5578 222° Southwest 193 222 11,800 246 Descending Seattle Center
Tue 02:17:26 PM 47.8292 -119.6244 272° West 184 212 12,600 590 Climbing Seattle Center
Tue 02:18:27 PM 47.7992 -119.6736 228° Southwest 195 224 13,000 98 Climbing Seattle Center
Tue 02:19:28 PM 47.7517 -119.6381 153° Southeast 189 217 12,800 -732 Descending Seattle Center
Tue 02:20:30 PM 47.7303 -119.5797 119° Southeast 229 264 11,500 -439 Descending Seattle Center
Tue 02:21:31 PM 47.7628 -119.6394 309° West 189 217 11,900 1,033 Climbing Seattle Center
Tue 02:22:32 PM 47.7853 -119.7067 297° West 173 199 13,600 1,525 Climbing Seattle Center
Tue 02:23:33 PM 47.7956 -119.7767 282° West 174 200 15,000 492 Climbing Seattle Center
Tue 02:24:34 PM 47.8000 -119.8525 275° West 182 209 14,600 -443 Descending Seattle Center
Tue 02:25:35 PM 47.8311 -119.8583 353° North 221 254 14,100 -537 Descending Seattle Center
Tue 02:26:37 PM 47.8664 -119.7931 51° Northeast 192 221 13,500 -585 Descending Seattle Center
Tue 02:27:38 PM 47.8967 -119.8314 320° Northwest 206 237 12,900 -148 Descending Seattle Center
Tue 02:28:39 PM 47.8686 -119.8697 223° Southwest 207 238 13,200 148 Climbing Seattle Center
Tue 02:29:40 PM 47.8236 -119.8306 150° Southeast 193 222 13,200  Level Seattle Center
Tue 02:30:41 PM 47.7733 -119.7828 147° Southeast 213 245 13,200  Level Seattle Center
Tue 02:31:42 PM 47.7172 -119.7306 148° Southeast 221 254 13,200  Level Seattle Center
Tue 02:32:43 PM 47.6622 -119.6806 149° Southeast 232 267 13,200  Level Seattle Center
Tue 02:33:44 PM 47.5900 -119.6119 147° Southeast 318 366 13,200  Level Seattle Center
Tue 02:34:45 PM 47.5089 -119.5392 149° Southeast 337 388 13,200 -344 Level Seattle Center
Tue 02:35:46 PM 47.4200 -119.4708 153° Southeast 337 388 12,500 -1,463 Descending Seattle Center
Tue 02:36:48 PM 47.3444 -119.4225 157° South 296 341 10,200 -2,488 Descending Seattle Center
Tue 02:37:49 PM 47.2706 -119.3806 159° South 287 330 7,400 -2,311 Descending Seattle Center
Tue 02:38:50 PM 47.1922 -119.3603 170° South 273 314 5,500 -1,770 Descending Seattle Center
Tue 02:39:51 PM 47.1297 -119.3494 173° South 234 269 3,800 -1,180 Descending Seattle Center
Tue 02:40:52 PM 47.0708 -119.3378 172° South 218 251 3,100 -443 Descending Seattle Center
Tue 02:41:53 PM 47.0553 -119.2869 114° Southeast 199 229 2,900 -148 Descending Seattle Center
Tue 02:42:54 PM 47.1022 -119.2678 16° North 180 207 2,800 -344 Descending Seattle Center
Tue 02:43:55 PM 47.1467 -119.2894 342° North 170 196 2,200 -738 Descending Seattle Center
Tue 02:44:56 PM 47.1872 -119.3086 342° North 158 182 1,300 -443 Descending Seattle Center
Tue 02:45:57 PM 47.2253 -119.3264 342° North 157 181 1,300  Level Seattle Center
Tue 02:47:00 PM 47.2086 -119.3191 North  Level Estimated

Login

Don't have an account? Register now (free) for customized features, flight alerts, and more!